sensor_id;sensor_type;location;lat;lon;timestamp;pressure;altitude;pressure_sealevel;temperature;humidity
70254;BME280;57649;42.968;1.608;2022-12-29T00:02:21;97508.03;;;4.87;88.95
70254;BME280;57649;42.968;1.608;2022-12-29T00:04:49;97502.19;;;4.84;88.52
70254;BME280;57649;42.968;1.608;2022-12-29T00:07:15;97499.13;;;4.88;88.80
70254;BME280;57649;42.968;1.608;2022-12-29T00:09:41;97490.44;;;4.86;88.24
70254;BME280;57649;42.968;1.608;2022-12-29T00:12:06;97492.97;;;4.88;87.05
70254;BME280;57649;42.968;1.608;2022-12-29T00:14:32;97498.22;;;4.99;87.36
70254;BME280;57649;42.968;1.608;2022-12-29T00:17:16;97490.25;;;4.99;86.58
70254;BME280;57649;42.968;1.608;2022-12-29T00:19:41;97475.28;;;4.98;86.40
70254;BME280;57649;42.968;1.608;2022-12-29T00:22:25;97478.66;;;5.00;86.26
70254;BME280;57649;42.968;1.608;2022-12-29T00:25:11;97474.13;;;4.91;86.38
70254;BME280;57649;42.968;1.608;2022-12-29T00:27:55;97459.19;;;4.90;86.31
70254;BME280;57649;42.968;1.608;2022-12-29T00:30:39;97450.91;;;5.04;85.84
70254;BME280;57649;42.968;1.608;2022-12-29T00:33:26;97453.94;;;4.99;85.93
70254;BME280;57649;42.968;1.608;2022-12-29T00:36:19;97456.22;;;5.04;85.52
70254;BME280;57649;42.968;1.608;2022-12-29T00:38:53;97447.72;;;5.10;85.45
70254;BME280;57649;42.968;1.608;2022-12-29T00:41:39;97439.63;;;5.12;85.11
70254;BME280;57649;42.968;1.608;2022-12-29T00:44:22;97443.22;;;5.11;84.99
70254;BME280;57649;42.968;1.608;2022-12-29T00:46:48;97441.25;;;5.03;86.76
70254;BME280;57649;42.968;1.608;2022-12-29T00:49:13;97447.25;;;5.05;87.34
70254;BME280;57649;42.968;1.608;2022-12-29T00:52:00;97434.78;;;4.96;87.53
70254;BME280;57649;42.968;1.608;2022-12-29T00:54:28;97437.63;;;5.04;87.23
70254;BME280;57649;42.968;1.608;2022-12-29T00:56:53;97430.19;;;4.98;87.96
70254;BME280;57649;42.968;1.608;2022-12-29T00:59:19;97436.53;;;5.07;87.40
70254;BME280;57649;42.968;1.608;2022-12-29T01:01:45;97434.88;;;5.15;87.34
70254;BME280;57649;42.968;1.608;2022-12-29T01:04:11;97436.75;;;5.25;86.30
70254;BME280;57649;42.968;1.608;2022-12-29T01:06:38;97436.19;;;5.31;85.61
70254;BME280;57649;42.968;1.608;2022-12-29T01:09:05;97430.38;;;5.37;83.96
70254;BME280;57649;42.968;1.608;2022-12-29T01:11:49;97431.66;;;5.52;84.52
70254;BME280;57649;42.968;1.608;2022-12-29T01:14:16;97433.19;;;5.55;82.43
70254;BME280;57649;42.968;1.608;2022-12-29T01:16:41;97424.38;;;5.54;82.52
70254;BME280;57649;42.968;1.608;2022-12-29T01:19:07;97438.38;;;5.56;81.35
70254;BME280;57649;42.968;1.608;2022-12-29T01:21:32;97433.50;;;5.62;81.27
70254;BME280;57649;42.968;1.608;2022-12-29T01:23:58;97433.75;;;5.58;82.83
70254;BME280;57649;42.968;1.608;2022-12-29T01:26:23;97446.19;;;5.48;82.51
70254;BME280;57649;42.968;1.608;2022-12-29T01:28:49;97439.59;;;5.43;83.93
70254;BME280;57649;42.968;1.608;2022-12-29T01:31:15;97442.06;;;5.34;84.68
70254;BME280;57649;42.968;1.608;2022-12-29T01:33:41;97427.25;;;5.22;85.01
70254;BME280;57649;42.968;1.608;2022-12-29T01:36:09;97422.41;;;5.37;83.41
70254;BME280;57649;42.968;1.608;2022-12-29T01:38:36;97435.69;;;5.37;83.16
70254;BME280;57649;42.968;1.608;2022-12-29T01:41:03;97443.31;;;5.30;84.03
70254;BME280;57649;42.968;1.608;2022-12-29T01:43:43;97440.97;;;5.37;83.50
70254;BME280;57649;42.968;1.608;2022-12-29T01:46:18;97438.59;;;5.34;84.48
70254;BME280;57649;42.968;1.608;2022-12-29T01:48:47;97441.94;;;5.36;84.52
70254;BME280;57649;42.968;1.608;2022-12-29T01:51:15;97443.00;;;5.24;85.83
70254;BME280;57649;42.968;1.608;2022-12-29T01:53:41;97438.09;;;5.09;87.12
70254;BME280;57649;42.968;1.608;2022-12-29T01:56:09;97433.78;;;5.18;86.66
70254;BME280;57649;42.968;1.608;2022-12-29T01:58:39;97440.91;;;5.17;86.42
70254;BME280;57649;42.968;1.608;2022-12-29T02:01:07;97445.66;;;5.24;84.49
70254;BME280;57649;42.968;1.608;2022-12-29T02:03:33;97434.41;;;5.31;83.97
70254;BME280;57649;42.968;1.608;2022-12-29T02:06:08;97440.34;;;5.24;83.72
70254;BME280;57649;42.968;1.608;2022-12-29T02:08:37;97448.75;;;5.29;83.06
70254;BME280;57649;42.968;1.608;2022-12-29T02:11:03;97450.59;;;5.28;83.42
70254;BME280;57649;42.968;1.608;2022-12-29T02:13:29;97452.81;;;5.33;83.38
70254;BME280;57649;42.968;1.608;2022-12-29T02:22:14;97459.72;;;5.14;83.40
70254;BME280;57649;42.968;1.608;2022-12-29T02:39:55;97456.66;;;5.09;84.10
70254;BME280;57649;42.968;1.608;2022-12-29T02:42:35;97452.69;;;5.04;84.67
70254;BME280;57649;42.968;1.608;2022-12-29T02:50:26;97445.09;;;4.89;87.87
70254;BME280;57649;42.968;1.608;2022-12-29T02:52:59;97442.56;;;4.88;87.70
70254;BME280;57649;42.968;1.608;2022-12-29T02:55:25;97434.75;;;4.86;87.31
70254;BME280;57649;42.968;1.608;2022-12-29T02:58:23;97425.16;;;4.95;85.59
70254;BME280;57649;42.968;1.608;2022-12-29T03:04:00;97435.78;;;4.95;84.97
70254;BME280;57649;42.968;1.608;2022-12-29T03:11:50;97431.72;;;4.70;88.65
70254;BME280;57649;42.968;1.608;2022-12-29T03:14:44;97424.34;;;4.73;88.63
70254;BME280;57649;42.968;1.608;2022-12-29T03:17:41;97418.34;;;4.71;88.75
70254;BME280;57649;42.968;1.608;2022-12-29T03:20:14;97405.25;;;4.79;87.92
70254;BME280;57649;42.968;1.608;2022-12-29T03:22:44;97417.34;;;4.93;86.50
70254;BME280;57649;42.968;1.608;2022-12-29T03:25:29;97410.91;;;4.96;84.84
70254;BME280;57649;42.968;1.608;2022-12-29T03:28:08;97418.19;;;5.04;85.49
70254;BME280;57649;42.968;1.608;2022-12-29T03:30:35;97423.94;;;5.09;85.05
70254;BME280;57649;42.968;1.608;2022-12-29T03:33:07;97421.88;;;5.12;84.55
70254;BME280;57649;42.968;1.608;2022-12-29T03:35:37;97421.88;;;5.12;84.75
70254;BME280;57649;42.968;1.608;2022-12-29T03:40:55;97417.25;;;5.05;85.97
70254;BME280;57649;42.968;1.608;2022-12-29T03:43:22;97406.75;;;5.03;86.02
70254;BME280;57649;42.968;1.608;2022-12-29T03:45:47;97411.97;;;5.14;85.35
70254;BME280;57649;42.968;1.608;2022-12-29T03:48:13;97417.97;;;5.16;84.54
70254;BME280;57649;42.968;1.608;2022-12-29T03:50:38;97408.78;;;5.20;83.95
70254;BME280;57649;42.968;1.608;2022-12-29T03:53:04;97412.66;;;5.16;84.31
70254;BME280;57649;42.968;1.608;2022-12-29T03:55:29;97406.59;;;5.26;84.24
70254;BME280;57649;42.968;1.608;2022-12-29T03:57:55;97399.59;;;5.34;82.35
70254;BME280;57649;42.968;1.608;2022-12-29T04:00:20;97412.59;;;5.37;82.51
70254;BME280;57649;42.968;1.608;2022-12-29T04:02:45;97415.28;;;5.47;82.05
70254;BME280;57649;42.968;1.608;2022-12-29T04:05:11;97416.41;;;5.54;80.94
70254;BME280;57649;42.968;1.608;2022-12-29T04:07:36;97413.94;;;5.63;81.06
70254;BME280;57649;42.968;1.608;2022-12-29T04:10:02;97411.69;;;5.58;81.21
70254;BME280;57649;42.968;1.608;2022-12-29T04:12:28;97407.75;;;5.62;82.19
70254;BME280;57649;42.968;1.608;2022-12-29T04:14:53;97398.97;;;5.62;82.08
70254;BME280;57649;42.968;1.608;2022-12-29T04:17:19;97410.72;;;5.59;81.84
70254;BME280;57649;42.968;1.608;2022-12-29T04:19:44;97408.44;;;5.54;82.71
70254;BME280;57649;42.968;1.608;2022-12-29T04:22:09;97414.59;;;5.45;83.46
70254;BME280;57649;42.968;1.608;2022-12-29T04:24:36;97417.09;;;5.47;83.58
70254;BME280;57649;42.968;1.608;2022-12-29T04:27:02;97416.09;;;5.38;84.45
70254;BME280;57649;42.968;1.608;2022-12-29T04:29:27;97414.72;;;5.44;83.65
70254;BME280;57649;42.968;1.608;2022-12-29T04:31:53;97412.19;;;5.42;83.07
70254;BME280;57649;42.968;1.608;2022-12-29T04:34:18;97414.59;;;5.55;82.13
70254;BME280;57649;42.968;1.608;2022-12-29T04:36:44;97411.94;;;5.55;82.58
70254;BME280;57649;42.968;1.608;2022-12-29T04:39:09;97421.72;;;5.54;83.11
70254;BME280;57649;42.968;1.608;2022-12-29T04:41:35;97417.53;;;5.52;82.49
70254;BME280;57649;42.968;1.608;2022-12-29T04:44:00;97423.69;;;5.52;82.51
70254;BME280;57649;42.968;1.608;2022-12-29T04:46:25;97418.22;;;5.44;83.32
70254;BME280;57649;42.968;1.608;2022-12-29T04:48:51;97431.75;;;5.41;84.38
70254;BME280;57649;42.968;1.608;2022-12-29T04:51:16;97431.69;;;5.21;85.23
70254;BME280;57649;42.968;1.608;2022-12-29T04:53:42;97424.59;;;5.22;85.28
70254;BME280;57649;42.968;1.608;2022-12-29T04:56:08;97430.28;;;5.17;86.13
70254;BME280;57649;42.968;1.608;2022-12-29T04:58:34;97435.47;;;5.19;86.88
70254;BME280;57649;42.968;1.608;2022-12-29T05:01:00;97438.84;;;5.31;86.28
70254;BME280;57649;42.968;1.608;2022-12-29T05:03:25;97431.00;;;5.29;85.62
70254;BME280;57649;42.968;1.608;2022-12-29T05:05:54;97429.78;;;5.33;84.88
70254;BME280;57649;42.968;1.608;2022-12-29T05:08:20;97430.38;;;5.37;85.19
70254;BME280;57649;42.968;1.608;2022-12-29T05:10:46;97430.06;;;5.40;85.75
70254;BME280;57649;42.968;1.608;2022-12-29T05:13:11;97447.69;;;5.41;85.26
70254;BME280;57649;42.968;1.608;2022-12-29T05:15:36;97450.03;;;5.34;85.10
70254;BME280;57649;42.968;1.608;2022-12-29T05:18:02;97452.97;;;5.31;86.02
70254;BME280;57649;42.968;1.608;2022-12-29T05:20:27;97449.91;;;5.36;86.13
70254;BME280;57649;42.968;1.608;2022-12-29T05:22:53;97453.13;;;5.39;87.01
70254;BME280;57649;42.968;1.608;2022-12-29T05:25:18;97440.00;;;5.38;86.50
70254;BME280;57649;42.968;1.608;2022-12-29T05:27:44;97440.44;;;5.43;86.54
70254;BME280;57649;42.968;1.608;2022-12-29T05:30:09;97445.34;;;5.48;85.50
70254;BME280;57649;42.968;1.608;2022-12-29T05:32:35;97441.84;;;5.47;85.32
70254;BME280;57649;42.968;1.608;2022-12-29T05:35:01;97441.56;;;5.50;84.78
70254;BME280;57649;42.968;1.608;2022-12-29T05:37:26;97430.97;;;5.60;83.94
70254;BME280;57649;42.968;1.608;2022-12-29T05:39:51;97435.75;;;5.66;82.80
70254;BME280;57649;42.968;1.608;2022-12-29T05:42:17;97430.97;;;5.60;84.30
70254;BME280;57649;42.968;1.608;2022-12-29T05:44:42;97440.31;;;5.54;85.58
70254;BME280;57649;42.968;1.608;2022-12-29T05:47:08;97429.44;;;5.67;85.08
70254;BME280;57649;42.968;1.608;2022-12-29T05:49:33;97426.78;;;5.57;85.23
70254;BME280;57649;42.968;1.608;2022-12-29T05:51:58;97430.44;;;5.66;83.53
70254;BME280;57649;42.968;1.608;2022-12-29T05:54:24;97426.78;;;5.67;84.27
70254;BME280;57649;42.968;1.608;2022-12-29T05:56:49;97417.28;;;5.65;83.52
70254;BME280;57649;42.968;1.608;2022-12-29T05:59:15;97427.34;;;5.71;82.79
70254;BME280;57649;42.968;1.608;2022-12-29T06:01:40;97428.50;;;5.78;82.29
70254;BME280;57649;42.968;1.608;2022-12-29T06:04:05;97438.16;;;5.79;82.74
70254;BME280;57649;42.968;1.608;2022-12-29T06:06:31;97430.75;;;5.83;81.37
70254;BME280;57649;42.968;1.608;2022-12-29T06:08:56;97437.72;;;5.74;82.65
70254;BME280;57649;42.968;1.608;2022-12-29T06:11:22;97429.06;;;5.72;82.84
70254;BME280;57649;42.968;1.608;2022-12-29T06:13:47;97431.59;;;5.83;81.94
70254;BME280;57649;42.968;1.608;2022-12-29T06:16:12;97442.50;;;5.90;80.67
70254;BME280;57649;42.968;1.608;2022-12-29T06:18:38;97440.03;;;5.98;80.90
70254;BME280;57649;42.968;1.608;2022-12-29T06:21:04;97438.56;;;5.84;80.51
70254;BME280;57649;42.968;1.608;2022-12-29T06:23:30;97440.94;;;5.87;81.48
70254;BME280;57649;42.968;1.608;2022-12-29T06:25:56;97449.06;;;5.86;82.33
70254;BME280;57649;42.968;1.608;2022-12-29T06:28:22;97448.78;;;5.79;81.09
70254;BME280;57649;42.968;1.608;2022-12-29T06:30:47;97456.06;;;5.77;81.94
70254;BME280;57649;42.968;1.608;2022-12-29T06:33:14;97459.81;;;5.84;83.23
70254;BME280;57649;42.968;1.608;2022-12-29T06:35:42;97461.91;;;5.81;81.95
70254;BME280;57649;42.968;1.608;2022-12-29T06:38:07;97457.72;;;5.88;82.86
70254;BME280;57649;42.968;1.608;2022-12-29T06:40:33;97448.09;;;5.87;81.79
70254;BME280;57649;42.968;1.608;2022-12-29T06:42:58;97463.59;;;5.82;81.69
70254;BME280;57649;42.968;1.608;2022-12-29T06:45:24;97468.50;;;5.86;83.11
70254;BME280;57649;42.968;1.608;2022-12-29T06:47:49;97459.56;;;5.87;81.79
70254;BME280;57649;42.968;1.608;2022-12-29T06:50:15;97455.50;;;5.83;81.71
70254;BME280;57649;42.968;1.608;2022-12-29T06:52:40;97461.38;;;5.87;81.56
70254;BME280;57649;42.968;1.608;2022-12-29T06:55:06;97465.41;;;5.81;80.46
70254;BME280;57649;42.968;1.608;2022-12-29T06:57:32;97468.75;;;5.73;82.55
70254;BME280;57649;42.968;1.608;2022-12-29T06:59:57;97459.66;;;5.66;82.29
70254;BME280;57649;42.968;1.608;2022-12-29T07:02:23;97461.50;;;5.85;81.01
70254;BME280;57649;42.968;1.608;2022-12-29T07:04:53;97472.13;;;5.85;81.76
70254;BME280;57649;42.968;1.608;2022-12-29T07:07:19;97471.13;;;5.76;81.09
70254;BME280;57649;42.968;1.608;2022-12-29T07:09:45;97462.91;;;5.79;80.31
70254;BME280;57649;42.968;1.608;2022-12-29T07:12:11;97465.13;;;5.74;80.87
70254;BME280;57649;42.968;1.608;2022-12-29T07:14:37;97464.56;;;5.81;80.27
70254;BME280;57649;42.968;1.608;2022-12-29T07:17:02;97465.53;;;5.70;80.31
70254;BME280;57649;42.968;1.608;2022-12-29T07:19:31;97468.84;;;5.62;80.74
70254;BME280;57649;42.968;1.608;2022-12-29T07:21:56;97472.00;;;5.77;80.76
70254;BME280;57649;42.968;1.608;2022-12-29T07:24:21;97472.00;;;5.77;79.98
70254;BME280;57649;42.968;1.608;2022-12-29T07:26:47;97471.94;;;5.67;81.47
70254;BME280;57649;42.968;1.608;2022-12-29T07:29:12;97463.16;;;5.67;81.85
70254;BME280;57649;42.968;1.608;2022-12-29T07:31:38;97463.69;;;5.61;82.67
70254;BME280;57649;42.968;1.608;2022-12-29T07:34:03;97460.06;;;5.62;82.95
70254;BME280;57649;42.968;1.608;2022-12-29T07:36:28;97468.16;;;5.60;83.11
70254;BME280;57649;42.968;1.608;2022-12-29T07:38:54;97459.91;;;5.53;83.96
70254;BME280;57649;42.968;1.608;2022-12-29T07:41:19;97449.88;;;5.67;80.88
70254;BME280;57649;42.968;1.608;2022-12-29T07:43:48;97451.13;;;5.72;79.36
70254;BME280;57649;42.968;1.608;2022-12-29T07:46:14;97449.03;;;5.76;79.03
70254;BME280;57649;42.968;1.608;2022-12-29T07:48:39;97447.53;;;5.83;77.54
70254;BME280;57649;42.968;1.608;2022-12-29T07:51:05;97451.16;;;5.82;78.45
70254;BME280;57649;42.968;1.608;2022-12-29T07:53:30;97443.88;;;5.84;78.45
70254;BME280;57649;42.968;1.608;2022-12-29T07:55:56;97446.25;;;5.87;77.60
70254;BME280;57649;42.968;1.608;2022-12-29T07:58:21;97433.81;;;5.88;78.21
70254;BME280;57649;42.968;1.608;2022-12-29T08:00:46;97436.53;;;5.97;76.73
70254;BME280;57649;42.968;1.608;2022-12-29T08:03:12;97431.06;;;6.09;76.63
70254;BME280;57649;42.968;1.608;2022-12-29T08:05:37;97438.06;;;6.10;77.36
70254;BME280;57649;42.968;1.608;2022-12-29T08:08:03;97442.97;;;6.05;76.96
70254;BME280;57649;42.968;1.608;2022-12-29T08:10:28;97440.88;;;6.08;76.74
70254;BME280;57649;42.968;1.608;2022-12-29T08:12:54;97445.63;;;6.14;76.21
70254;BME280;57649;42.968;1.608;2022-12-29T08:15:19;97445.63;;;6.24;76.97
70254;BME280;57649;42.968;1.608;2022-12-29T08:17:44;97442.69;;;6.27;76.48
70254;BME280;57649;42.968;1.608;2022-12-29T08:20:10;97449.69;;;6.38;75.42
70254;BME280;57649;42.968;1.608;2022-12-29T08:22:36;97457.97;;;6.45;75.79
70254;BME280;57649;42.968;1.608;2022-12-29T08:25:02;97450.25;;;6.42;75.54
70254;BME280;57649;42.968;1.608;2022-12-29T08:27:27;97458.06;;;6.53;75.73
70254;BME280;57649;42.968;1.608;2022-12-29T08:29:52;97444.50;;;6.56;75.27
70254;BME280;57649;42.968;1.608;2022-12-29T08:32:18;97452.34;;;6.58;75.51
70254;BME280;57649;42.968;1.608;2022-12-29T08:34:43;97445.19;;;6.58;75.37
70254;BME280;57649;42.968;1.608;2022-12-29T08:37:09;97449.97;;;6.54;76.36
70254;BME280;57649;42.968;1.608;2022-12-29T08:39:34;97455.25;;;6.64;75.38
70254;BME280;57649;42.968;1.608;2022-12-29T08:42:00;97437.03;;;6.79;74.10
70254;BME280;57649;42.968;1.608;2022-12-29T08:44:25;97442.34;;;6.89;73.26
70254;BME280;57649;42.968;1.608;2022-12-29T08:46:51;97441.06;;;6.93;72.58
70254;BME280;57649;42.968;1.608;2022-12-29T08:49:32;97445.53;;;7.02;73.11
70254;BME280;57649;42.968;1.608;2022-12-29T08:51:59;97438.50;;;7.01;72.47
70254;BME280;57649;42.968;1.608;2022-12-29T08:54:24;97437.63;;;7.10;72.27
70254;BME280;57649;42.968;1.608;2022-12-29T08:56:50;97437.06;;;7.17;72.26
70254;BME280;57649;42.968;1.608;2022-12-29T08:59:15;97424.84;;;7.24;71.93
70254;BME280;57649;42.968;1.608;2022-12-29T09:01:41;97436.19;;;7.26;71.73
70254;BME280;57649;42.968;1.608;2022-12-29T09:04:07;97434.81;;;7.22;72.13
70254;BME280;57649;42.968;1.608;2022-12-29T09:06:33;97434.63;;;7.33;72.17
70254;BME280;57649;42.968;1.608;2022-12-29T09:08:58;97448.41;;;7.19;74.13
70254;BME280;57649;42.968;1.608;2022-12-29T09:11:25;97430.94;;;7.06;74.79
70254;BME280;57649;42.968;1.608;2022-12-29T09:13:51;97443.28;;;7.07;74.37
70254;BME280;57649;42.968;1.608;2022-12-29T09:16:17;97444.94;;;7.08;74.18
70254;BME280;57649;42.968;1.608;2022-12-29T09:18:43;97439.97;;;7.23;73.16
70254;BME280;57649;42.968;1.608;2022-12-29T09:21:10;97427.47;;;7.33;73.11
70254;BME280;57649;42.968;1.608;2022-12-29T09:23:36;97432.38;;;7.28;72.88
70254;BME280;57649;42.968;1.608;2022-12-29T09:26:02;97432.44;;;7.46;72.24
70254;BME280;57649;42.968;1.608;2022-12-29T09:28:28;97429.09;;;7.44;72.01
70254;BME280;57649;42.968;1.608;2022-12-29T09:30:54;97425.25;;;7.57;71.45
70254;BME280;57649;42.968;1.608;2022-12-29T09:33:20;97424.72;;;7.71;69.93
70254;BME280;57649;42.968;1.608;2022-12-29T09:35:51;97430.97;;;7.89;70.02
70254;BME280;57649;42.968;1.608;2022-12-29T09:38:17;97432.91;;;7.87;70.37
70254;BME280;57649;42.968;1.608;2022-12-29T09:40:46;97440.63;;;7.90;70.35
70254;BME280;57649;42.968;1.608;2022-12-29T09:48:52;97443.38;;;7.99;72.21
70254;BME280;57649;42.968;1.608;2022-12-29T09:51:22;97448.19;;;7.95;73.32
70254;BME280;57649;42.968;1.608;2022-12-29T09:53:56;97446.94;;;8.07;72.78
70254;BME280;57649;42.968;1.608;2022-12-29T09:56:24;97447.88;;;8.16;71.80
70254;BME280;57649;42.968;1.608;2022-12-29T09:59:09;97459.84;;;8.30;71.10
70254;BME280;57649;42.968;1.608;2022-12-29T10:01:46;97452.19;;;8.45;69.93
70254;BME280;57649;42.968;1.608;2022-12-29T10:04:14;97450.03;;;8.66;69.74
70254;BME280;57649;42.968;1.608;2022-12-29T10:06:46;97440.16;;;8.85;67.60
70254;BME280;57649;42.968;1.608;2022-12-29T10:09:22;97447.59;;;8.99;68.63
70254;BME280;57649;42.968;1.608;2022-12-29T10:14:54;97449.22;;;9.27;66.57
70254;BME280;57649;42.968;1.608;2022-12-29T10:17:42;97442.47;;;9.40;67.87
70254;BME280;57649;42.968;1.608;2022-12-29T10:25:58;97421.38;;;9.63;65.35
70254;BME280;57649;42.968;1.608;2022-12-29T10:28:35;97429.03;;;9.67;65.22
70254;BME280;57649;42.968;1.608;2022-12-29T10:31:04;97429.09;;;9.83;63.86
70254;BME280;57649;42.968;1.608;2022-12-29T10:33:37;97431.75;;;9.83;62.94
70254;BME280;57649;42.968;1.608;2022-12-29T10:36:28;97415.88;;;9.81;63.69
70254;BME280;57649;42.968;1.608;2022-12-29T10:43:59;97411.16;;;10.34;61.86
70254;BME280;57649;42.968;1.608;2022-12-29T10:46:29;97412.00;;;10.43;62.08
70254;BME280;57649;42.968;1.608;2022-12-29T10:48:56;97416.00;;;10.47;62.92
70254;BME280;57649;42.968;1.608;2022-12-29T10:51:27;97410.31;;;10.58;61.48
70254;BME280;57649;42.968;1.608;2022-12-29T10:54:25;97400.28;;;10.77;61.47
70254;BME280;57649;42.968;1.608;2022-12-29T10:56:56;97396.59;;;10.86;60.59
70254;BME280;57649;42.968;1.608;2022-12-29T10:59:28;97385.19;;;10.84;60.78
70254;BME280;57649;42.968;1.608;2022-12-29T11:02:13;97382.50;;;10.84;60.74
70254;BME280;57649;42.968;1.608;2022-12-29T11:07:25;97370.44;;;10.96;60.18
70254;BME280;57649;42.968;1.608;2022-12-29T11:09:51;97363.72;;;11.09;60.31
70254;BME280;57649;42.968;1.608;2022-12-29T11:12:30;97360.06;;;11.02;60.50
70254;BME280;57649;42.968;1.608;2022-12-29T11:17:45;97350.31;;;11.09;60.97
70254;BME280;57649;42.968;1.608;2022-12-29T11:20:34;97344.31;;;10.98;60.93
70254;BME280;57649;42.968;1.608;2022-12-29T11:23:01;97340.16;;;10.96;61.67
70254;BME280;57649;42.968;1.608;2022-12-29T11:25:27;97336.88;;;11.17;60.69
70254;BME280;57649;42.968;1.608;2022-12-29T11:30:29;97325.00;;;11.51;60.40
70254;BME280;57649;42.968;1.608;2022-12-29T11:32:56;97325.03;;;11.74;59.47
70254;BME280;57649;42.968;1.608;2022-12-29T11:35:34;97315.25;;;11.81;58.54
70254;BME280;57649;42.968;1.608;2022-12-29T11:38:01;97315.91;;;11.91;58.62
70254;BME280;57649;42.968;1.608;2022-12-29T11:40:28;97300.06;;;11.73;59.02
70254;BME280;57649;42.968;1.608;2022-12-29T11:42:55;97301.97;;;11.88;59.00
70254;BME280;57649;42.968;1.608;2022-12-29T11:45:24;97291.97;;;11.82;59.34
70254;BME280;57649;42.968;1.608;2022-12-29T11:47:54;97291.03;;;11.74;59.46
70254;BME280;57649;42.968;1.608;2022-12-29T11:50:26;97286.31;;;11.77;59.49
70254;BME280;57649;42.968;1.608;2022-12-29T11:53:00;97281.28;;;11.73;59.90
70254;BME280;57649;42.968;1.608;2022-12-29T11:55:37;97275.94;;;11.73;60.46
70254;BME280;57649;42.968;1.608;2022-12-29T11:58:06;97270.41;;;11.75;60.12
70254;BME280;57649;42.968;1.608;2022-12-29T12:00:34;97261.38;;;11.68;60.70
70254;BME280;57649;42.968;1.608;2022-12-29T12:03:05;97261.88;;;11.71;59.85
70254;BME280;57649;42.968;1.608;2022-12-29T12:05:46;97260.13;;;11.79;60.00
70254;BME280;57649;42.968;1.608;2022-12-29T12:11:12;97251.63;;;11.75;59.80
70254;BME280;57649;42.968;1.608;2022-12-29T12:13:59;97254.44;;;11.82;60.63
70254;BME280;57649;42.968;1.608;2022-12-29T12:17:02;97245.84;;;11.86;60.07
70254;BME280;57649;42.968;1.608;2022-12-29T12:19:54;97225.53;;;11.92;59.02
70254;BME280;57649;42.968;1.608;2022-12-29T12:22:36;97233.81;;;12.05;59.11
70254;BME280;57649;42.968;1.608;2022-12-29T12:25:34;97227.72;;;12.11;58.19
70254;BME280;57649;42.968;1.608;2022-12-29T12:28:20;97227.72;;;12.11;58.22
70254;BME280;57649;42.968;1.608;2022-12-29T12:30:53;97222.88;;;12.07;58.58
70254;BME280;57649;42.968;1.608;2022-12-29T12:33:34;97222.38;;;12.41;57.49
70254;BME280;57649;42.968;1.608;2022-12-29T12:39:12;97208.59;;;12.59;57.72
70254;BME280;57649;42.968;1.608;2022-12-29T12:42:08;97201.63;;;12.65;58.16
70254;BME280;57649;42.968;1.608;2022-12-29T12:53:43;97195.53;;;12.86;56.57
70254;BME280;57649;42.968;1.608;2022-12-29T13:13:45;97165.75;;;13.02;55.35
70254;BME280;57649;42.968;1.608;2022-12-29T13:16:35;97153.28;;;13.16;54.51
70254;BME280;57649;42.968;1.608;2022-12-29T13:22:07;97159.97;;;13.42;54.56
70254;BME280;57649;42.968;1.608;2022-12-29T13:30:08;97162.47;;;13.65;54.07
70254;BME280;57649;42.968;1.608;2022-12-29T13:38:44;97169.53;;;13.29;55.35
70254;BME280;57649;42.968;1.608;2022-12-29T13:41:28;97161.41;;;13.23;55.49
70254;BME280;57649;42.968;1.608;2022-12-29T13:43:55;97159.28;;;13.18;56.39
70254;BME280;57649;42.968;1.608;2022-12-29T13:46:29;97155.25;;;13.07;56.02
70254;BME280;57649;42.968;1.608;2022-12-29T13:49:02;97155.44;;;13.06;57.05
70254;BME280;57649;42.968;1.608;2022-12-29T13:51:30;97159.59;;;13.08;58.02
70254;BME280;57649;42.968;1.608;2022-12-29T13:56:51;97159.28;;;13.18;57.72
70254;BME280;57649;42.968;1.608;2022-12-29T13:59:33;97163.50;;;13.06;58.18
70254;BME280;57649;42.968;1.608;2022-12-29T14:02:42;97163.06;;;13.02;59.09
70254;BME280;57649;42.968;1.608;2022-12-29T14:07:47;97151.84;;;12.99;60.20
70254;BME280;57649;42.968;1.608;2022-12-29T14:10:29;97149.03;;;13.07;61.13
70254;BME280;57649;42.968;1.608;2022-12-29T14:13:11;97142.66;;;13.08;60.97
70254;BME280;57649;42.968;1.608;2022-12-29T14:15:39;97143.25;;;13.25;60.02
70254;BME280;57649;42.968;1.608;2022-12-29T14:18:19;97145.09;;;13.24;61.09
70254;BME280;57649;42.968;1.608;2022-12-29T14:20:53;97150.63;;;13.38;61.63
70254;BME280;57649;42.968;1.608;2022-12-29T14:23:35;97148.50;;;13.33;63.88
70254;BME280;57649;42.968;1.608;2022-12-29T14:28:51;97145.41;;;13.15;66.30
70254;BME280;57649;42.968;1.608;2022-12-29T14:42:26;97161.28;;;12.95;70.09
70254;BME280;57649;42.968;1.608;2022-12-29T14:45:02;97156.19;;;13.00;69.57
70254;BME280;57649;42.968;1.608;2022-12-29T14:49:57;97155.06;;;13.09;68.29
70254;BME280;57649;42.968;1.608;2022-12-29T14:52:29;97154.03;;;13.10;69.00
70254;BME280;57649;42.968;1.608;2022-12-29T14:58:06;97163.75;;;13.11;69.68
70254;BME280;57649;42.968;1.608;2022-12-29T15:00:35;97160.69;;;13.14;71.70
70254;BME280;57649;42.968;1.608;2022-12-29T15:03:24;97159.00;;;13.13;73.72
70254;BME280;57649;42.968;1.608;2022-12-29T15:05:59;97160.06;;;13.12;74.36
70254;BME280;57649;42.968;1.608;2022-12-29T15:08:33;97162.59;;;12.99;75.32
70254;BME280;57649;42.968;1.608;2022-12-29T15:11:09;97163.63;;;12.98;76.30
70254;BME280;57649;42.968;1.608;2022-12-29T15:13:42;97167.16;;;12.83;78.81
70254;BME280;57649;42.968;1.608;2022-12-29T15:16:30;97165.88;;;12.79;80.26
70254;BME280;57649;42.968;1.608;2022-12-29T15:18:56;97161.06;;;12.60;79.63
70254;BME280;57649;42.968;1.608;2022-12-29T15:21:30;97171.47;;;12.48;80.05
70254;BME280;57649;42.968;1.608;2022-12-29T15:23:57;97172.47;;;12.47;81.79
70254;BME280;57649;42.968;1.608;2022-12-29T15:26:22;97166.00;;;12.56;82.54
70254;BME280;57649;42.968;1.608;2022-12-29T15:28:52;97167.84;;;12.56;82.51
70254;BME280;57649;42.968;1.608;2022-12-29T15:31:24;97174.34;;;12.46;84.40
70254;BME280;57649;42.968;1.608;2022-12-29T15:33:52;97180.06;;;12.43;84.59
70254;BME280;57649;42.968;1.608;2022-12-29T15:36:22;97181.56;;;12.31;84.79
70254;BME280;57649;42.968;1.608;2022-12-29T15:38:49;97198.84;;;12.13;85.15
70254;BME280;57649;42.968;1.608;2022-12-29T15:41:24;97206.22;;;11.97;87.12